createdAt,value
2024-03-09T00:00:38.991Z,131.19
2024-03-09T00:01:39.055Z,131.13
2024-03-09T00:02:39.030Z,131.17
2024-03-09T00:03:39.049Z,129.93
2024-03-09T00:04:39.000Z,130.56
2024-03-09T00:05:38.973Z,130.78
2024-03-09T00:06:38.972Z,129.63
2024-03-09T00:07:38.991Z,130.71
2024-03-09T00:08:38.984Z,132.44
2024-03-09T00:09:38.993Z,127.42
2024-03-09T00:10:39.123Z,131.25
2024-03-09T00:11:39.031Z,130.54
2024-03-09T00:12:38.954Z,132.18
2024-03-09T00:13:40.546Z,131.01
2024-03-09T00:14:38.967Z,132.89
2024-03-09T00:15:38.981Z,131.70
2024-03-09T00:16:39.011Z,130.82
2024-03-09T00:17:38.966Z,131.35
2024-03-09T00:18:44.690Z,130.55
2024-03-09T00:19:40.032Z,130.66
2024-03-09T00:20:38.970Z,131.16
2024-03-09T00:21:38.979Z,131.84
2024-03-09T00:22:39.019Z,131.89
2024-03-09T00:23:39.001Z,132.78
2024-03-09T00:24:38.992Z,133.70
2024-03-09T00:25:39.676Z,133.96
2024-03-09T00:26:39.003Z,131.51
2024-03-09T00:27:39.008Z,133.08
2024-03-09T00:28:39.028Z,134.24
2024-03-09T00:29:38.978Z,134.04
2024-03-09T00:30:38.986Z,130.97
2024-03-09T00:31:39.046Z,132.10
2024-03-09T00:32:38.997Z,130.01
2024-03-09T00:33:38.998Z,129.64
2024-03-09T00:34:38.999Z,127.48
2024-03-09T00:35:38.967Z,128.78
2024-03-09T00:36:38.977Z,126.82
2024-03-09T00:37:39.014Z,130.00
2024-03-09T00:38:38.965Z,128.18
2024-03-09T00:39:38.995Z,124.72
2024-03-09T00:40:39.034Z,127.63
2024-03-09T00:41:38.954Z,130.38
2024-03-09T00:42:39.117Z,128.15
2024-03-09T00:43:39.268Z,128.81
2024-03-09T00:44:39.397Z,130.13
2024-03-09T00:45:39.587Z,127.15
2024-03-09T00:46:39.754Z,130.42
2024-03-09T00:47:39.951Z,129.66
2024-03-09T00:48:39.964Z,127.49
2024-03-09T00:49:40.150Z,128.19
2024-03-09T00:50:40.241Z,129.06
2024-03-09T00:51:40.404Z,126.56
2024-03-09T00:52:40.500Z,129.67
2024-03-09T00:53:40.614Z,125.90
2024-03-09T00:54:40.674Z,125.23
2024-03-09T00:55:40.769Z,128.72
2024-03-09T00:56:40.709Z,125.61
2024-03-09T00:57:40.753Z,125.42
2024-03-09T00:58:40.817Z,124.98
2024-03-09T00:59:40.823Z,124.60
2024-03-09T01:00:40.945Z,126.01
2024-03-09T01:01:41.094Z,125.27
2024-03-09T01:02:41.162Z,124.78
2024-03-09T01:03:41.258Z,123.84
2024-03-09T01:04:41.407Z,125.04
2024-03-09T01:05:41.545Z,122.26
2024-03-09T01:06:41.518Z,122.46
2024-03-09T01:07:41.574Z,122.40
2024-03-09T01:08:41.549Z,122.20
2024-03-09T01:09:41.596Z,119.45
2024-03-09T01:10:41.691Z,120.99
2024-03-09T01:11:41.724Z,118.58
2024-03-09T01:12:41.640Z,120.30
2024-03-09T01:13:41.685Z,118.43
2024-03-09T01:14:41.698Z,117.55
2024-03-09T01:15:41.742Z,119.77
2024-03-09T01:16:41.817Z,118.47
2024-03-09T01:17:41.778Z,117.57
2024-03-09T01:18:41.772Z,120.67
2024-03-09T01:19:41.815Z,117.65
2024-03-09T01:20:41.857Z,117.61
2024-03-09T01:21:41.855Z,117.35
2024-03-09T01:22:41.866Z,117.40
2024-03-09T01:23:41.903Z,117.47
2024-03-09T01:24:41.910Z,116.17
2024-03-09T01:25:41.926Z,116.81
2024-03-09T01:26:41.957Z,116.23
2024-03-09T01:27:42.039Z,116.35
2024-03-09T01:28:42.002Z,119.56
2024-03-09T01:29:42.032Z,118.43
2024-03-09T01:30:42.047Z,117.22
2024-03-09T01:31:42.108Z,120.21
2024-03-09T01:32:42.319Z,121.65
2024-03-09T01:33:42.135Z,121.21
2024-03-09T01:34:42.187Z,119.69
2024-03-09T01:35:42.162Z,122.93
2024-03-09T01:36:42.199Z,120.62
2024-03-09T01:37:42.326Z,121.85
2024-03-09T01:38:42.302Z,122.42
2024-03-09T01:39:42.276Z,123.05
2024-03-09T01:40:42.325Z,121.85
2024-03-09T01:41:42.359Z,123.66
2024-03-09T01:42:42.419Z,122.62
2024-03-09T01:43:42.455Z,123.35
2024-03-09T01:44:42.440Z,122.23
2024-03-09T01:45:42.459Z,123.23
2024-03-09T01:46:42.583Z,121.58
2024-03-09T01:47:42.548Z,123.79
2024-03-09T01:48:42.559Z,121.79
2024-03-09T01:49:42.724Z,121.93
2024-03-09T01:50:42.611Z,124.20
2024-03-09T01:51:42.700Z,121.04
2024-03-09T01:52:42.707Z,125.46
2024-03-09T01:53:42.735Z,123.96
2024-03-09T01:54:43.089Z,122.08
2024-03-09T01:55:42.775Z,125.97
2024-03-09T01:56:42.790Z,123.33
2024-03-09T01:57:42.880Z,122.97
2024-03-09T01:58:42.927Z,122.97
2024-03-09T01:59:42.862Z,122.71
2024-03-09T02:00:42.948Z,121.37
2024-03-09T02:01:42.999Z,123.09
2024-03-09T02:02:43.007Z,121.88
2024-03-09T02:03:43.023Z,122.67
2024-03-09T02:04:43.069Z,124.65
2024-03-09T02:05:43.066Z,123.14
2024-03-09T02:06:43.123Z,121.86
2024-03-09T02:07:43.112Z,122.03
2024-03-09T02:08:43.153Z,119.77
2024-03-09T02:09:43.153Z,123.49
2024-03-09T02:10:43.278Z,121.85
2024-03-09T02:11:43.389Z,121.79
2024-03-09T02:12:43.266Z,121.06
2024-03-09T02:13:43.283Z,121.73
2024-03-09T02:14:43.288Z,122.47
2024-03-09T02:15:43.310Z,121.83
2024-03-09T02:16:43.402Z,122.75
2024-03-09T02:17:43.387Z,121.45
2024-03-09T02:18:43.409Z,121.59
2024-03-09T02:19:43.587Z,121.57
2024-03-09T02:20:43.446Z,120.45
2024-03-09T02:21:43.485Z,122.15
2024-03-09T02:22:43.562Z,119.16
2024-03-09T02:23:43.574Z,120.54
2024-03-09T02:24:43.893Z,117.48
2024-03-09T02:25:43.995Z,120.67
2024-03-09T02:26:44.108Z,121.18
2024-03-09T02:27:44.539Z,118.55
2024-03-09T02:28:44.618Z,118.40
2024-03-09T02:29:44.715Z,122.16
2024-03-09T02:30:44.913Z,118.22
2024-03-09T02:31:45.133Z,119.14
2024-03-09T02:32:45.359Z,119.55
2024-03-09T02:33:45.478Z,119.66
2024-03-09T02:34:45.759Z,119.71
2024-03-09T02:35:45.941Z,117.65
2024-03-09T02:36:46.112Z,116.87
2024-03-09T02:37:46.390Z,117.87
2024-03-09T02:38:46.568Z,118.29
2024-03-09T02:39:46.772Z,117.94
2024-03-09T02:40:46.913Z,117.77
2024-03-09T02:41:47.052Z,118.44
2024-03-09T02:42:47.302Z,120.37
2024-03-09T02:43:47.396Z,116.81
2024-03-09T02:44:47.675Z,115.34
2024-03-09T02:45:47.808Z,117.19
2024-03-09T02:46:48.043Z,115.97
2024-03-09T02:47:48.247Z,117.29
2024-03-09T02:48:48.414Z,117.14
2024-03-09T02:49:48.587Z,118.89
2024-03-09T02:50:48.749Z,118.25
2024-03-09T02:51:49.128Z,119.66
2024-03-09T02:52:49.207Z,120.16
2024-03-09T02:53:49.325Z,118.98
2024-03-09T02:54:49.508Z,117.70
2024-03-09T02:55:49.737Z,119.09
2024-03-09T02:56:49.809Z,117.31
2024-03-09T02:57:49.980Z,116.92
2024-03-09T02:58:50.343Z,117.93
2024-03-09T02:59:50.436Z,118.49
2024-03-09T03:00:50.518Z,118.57
2024-03-09T03:01:50.750Z,120.38
2024-03-09T03:02:50.930Z,117.56
2024-03-09T03:03:51.181Z,119.45
2024-03-09T03:04:51.310Z,118.61
2024-03-09T03:05:51.502Z,116.81
2024-03-09T03:06:51.654Z,117.52
2024-03-09T03:07:51.897Z,115.74
2024-03-09T03:08:52.089Z,115.83
2024-03-09T03:09:52.163Z,115.81
2024-03-09T03:10:52.423Z,115.75
2024-03-09T03:11:52.527Z,115.96
2024-03-09T03:12:52.462Z,117.48
2024-03-09T03:13:52.507Z,114.96
2024-03-09T03:14:52.503Z,115.71
2024-03-09T03:15:52.579Z,115.04
2024-03-09T03:16:52.749Z,112.56
2024-03-09T03:17:52.711Z,112.50
2024-03-09T03:18:52.677Z,113.02
2024-03-09T03:19:52.768Z,109.11
2024-03-09T03:20:52.746Z,108.29
2024-03-09T03:21:52.774Z,110.02
2024-03-09T03:22:52.902Z,108.30
2024-03-09T03:23:52.850Z,111.16
2024-03-09T03:24:52.867Z,110.31
2024-03-09T03:25:53.031Z,107.69
2024-03-09T03:26:52.999Z,109.56
2024-03-09T03:27:53.001Z,107.19
2024-03-09T03:28:53.088Z,108.18
2024-03-09T03:29:53.103Z,105.75
2024-03-09T03:30:53.136Z,108.87
2024-03-09T03:31:53.249Z,108.07
2024-03-09T03:32:53.923Z,106.81
2024-03-09T03:33:54.436Z,106.93
2024-03-09T03:34:53.451Z,107.04
2024-03-09T03:35:53.472Z,106.39
2024-03-09T03:36:53.467Z,106.20
2024-03-09T03:37:53.628Z,105.50
2024-03-09T03:38:53.504Z,106.50
2024-03-09T03:39:53.586Z,105.11
2024-03-09T03:40:53.672Z,106.22
2024-03-09T03:41:53.680Z,105.02
2024-03-09T03:42:53.775Z,105.75
2024-03-09T03:43:53.840Z,105.04
2024-03-09T03:44:53.799Z,102.75
2024-03-09T03:45:53.832Z,104.32
2024-03-09T03:46:53.891Z,103.41
2024-03-09T03:47:54.098Z,104.44
2024-03-09T03:48:54.033Z,101.00
2024-03-09T03:49:54.101Z,103.38
2024-03-09T03:50:54.099Z,101.32
2024-03-09T03:51:54.099Z,102.30
2024-03-09T03:52:54.189Z,99.22
2024-03-09T03:53:54.217Z,100.06
2024-03-09T03:54:54.293Z,101.29
2024-03-09T03:55:54.366Z,98.54
2024-03-09T03:56:54.405Z,98.71
2024-03-09T03:57:54.407Z,101.11
2024-03-09T03:58:54.494Z,99.87
2024-03-09T03:59:54.527Z,100.28
2024-03-09T04:00:54.575Z,101.33
2024-03-09T04:01:54.677Z,100.81
2024-03-09T04:02:54.634Z,99.28
2024-03-09T04:03:54.693Z,99.88
2024-03-09T04:04:54.898Z,96.07
2024-03-09T04:05:54.767Z,97.35
2024-03-09T04:06:54.827Z,100.74
2024-03-09T04:07:54.944Z,96.55
2024-03-09T04:08:54.966Z,94.71
2024-03-09T04:09:55.004Z,97.44
2024-03-09T04:10:55.530Z,95.88
2024-03-09T04:11:55.156Z,99.28
2024-03-09T04:12:55.169Z,98.74
2024-03-09T04:13:55.258Z,98.79
2024-03-09T04:14:55.235Z,101.09
2024-03-09T04:15:55.307Z,100.00
2024-03-09T04:16:55.392Z,98.84
2024-03-09T04:17:55.454Z,99.23
2024-03-09T04:18:55.476Z,96.03
2024-03-09T04:19:55.570Z,97.40
2024-03-09T04:20:55.929Z,99.76
2024-03-09T04:21:55.645Z,99.83
2024-03-09T04:22:55.688Z,96.15
2024-03-09T04:23:55.720Z,95.87
2024-03-09T04:24:55.829Z,96.51
2024-03-09T04:25:55.839Z,97.05
2024-03-09T04:26:55.865Z,95.66
2024-03-09T04:27:55.949Z,94.68
2024-03-09T04:29:03.655Z,50.00
2024-03-09T04:30:03.182Z,50.00
2024-03-09T04:31:10.397Z,50.00
2024-03-09T04:32:10.446Z,50.00
2024-03-09T04:33:10.572Z,50.00
2024-03-09T04:34:10.660Z,50.00
2024-03-09T04:35:11.075Z,50.00
2024-03-09T04:36:11.041Z,50.25
2024-03-09T04:37:11.313Z,50.18
2024-03-09T04:38:11.517Z,50.00
2024-03-09T04:39:11.811Z,50.59
2024-03-09T04:40:11.901Z,51.45
2024-03-09T04:41:12.182Z,50.21
2024-03-09T04:42:12.258Z,51.33
2024-03-09T04:43:12.434Z,54.69
2024-03-09T04:44:21.865Z,51.52
2024-03-09T04:45:13.602Z,51.61
2024-03-09T04:46:12.586Z,51.98
2024-03-09T04:47:12.633Z,52.71
2024-03-09T04:48:12.636Z,53.42
2024-03-09T04:49:12.633Z,54.28
2024-03-09T04:50:12.648Z,55.53
2024-03-09T04:51:12.643Z,54.25
2024-03-09T04:52:12.609Z,54.59
2024-03-09T04:53:12.675Z,54.75
2024-03-09T04:54:12.659Z,53.71
2024-03-09T04:55:12.723Z,56.09
2024-03-09T04:56:12.907Z,51.70
2024-03-09T04:57:12.849Z,51.00
2024-03-09T04:58:12.896Z,54.62
2024-03-09T04:59:12.991Z,52.13
2024-03-09T05:00:13.071Z,51.00
2024-03-09T05:01:13.055Z,55.15
2024-03-09T05:02:13.123Z,51.58
2024-03-09T05:03:13.244Z,55.11
2024-03-09T05:04:13.229Z,52.57
2024-03-09T05:05:13.361Z,56.40
2024-03-09T05:06:13.400Z,54.34
2024-03-09T05:07:13.463Z,55.00
2024-03-09T05:08:13.695Z,55.32
2024-03-09T05:09:13.578Z,56.25
2024-03-09T05:10:13.598Z,55.90
2024-03-09T05:11:13.703Z,57.34
2024-03-09T05:12:13.748Z,54.78
2024-03-09T05:13:13.790Z,55.09
2024-03-09T05:14:13.848Z,55.24
2024-03-09T05:15:13.903Z,54.38
2024-03-09T05:16:13.989Z,55.55
2024-03-09T05:17:14.048Z,55.96
2024-03-09T05:18:14.135Z,56.53
2024-03-09T05:19:14.104Z,57.01
2024-03-09T05:20:14.208Z,59.05
2024-03-09T05:21:14.216Z,56.52
2024-03-09T05:22:14.282Z,55.67
2024-03-09T05:23:16.661Z,58.82
2024-03-09T05:24:14.348Z,57.56
2024-03-09T05:25:14.391Z,58.45
2024-03-09T05:26:14.388Z,58.12
2024-03-09T05:27:14.370Z,57.71
2024-03-09T05:28:15.380Z,57.88
2024-03-09T05:29:14.383Z,59.26
2024-03-09T05:30:14.352Z,60.99
2024-03-09T05:31:14.399Z,60.09
2024-03-09T05:32:14.472Z,57.81
2024-03-09T05:33:14.413Z,59.76
2024-03-09T05:34:14.352Z,59.82
2024-03-09T05:35:14.415Z,59.29
2024-03-09T05:36:14.363Z,60.40
2024-03-09T05:37:14.373Z,59.30
2024-03-09T05:38:14.447Z,61.62
2024-03-09T05:39:14.395Z,59.38
2024-03-09T05:40:14.395Z,59.50
2024-03-09T05:41:14.433Z,60.34
2024-03-09T05:42:14.371Z,60.46
2024-03-09T05:43:14.406Z,58.34
2024-03-09T05:44:14.524Z,60.30
2024-03-09T05:45:14.518Z,60.37
2024-03-09T05:46:14.602Z,62.74
2024-03-09T05:47:14.680Z,62.33
2024-03-09T05:48:14.714Z,62.18
2024-03-09T05:49:14.724Z,66.62
2024-03-09T05:50:14.845Z,64.62
2024-03-09T05:51:14.827Z,63.66
2024-03-09T05:52:14.904Z,63.99
2024-03-09T05:53:14.944Z,63.65
2024-03-09T05:54:14.959Z,66.11
2024-03-09T05:55:15.070Z,65.82
2024-03-09T05:56:15.106Z,70.72
2024-03-09T05:57:15.095Z,67.59
2024-03-09T05:58:15.126Z,67.02
2024-03-09T05:59:15.226Z,67.79
2024-03-09T06:00:15.259Z,69.85
2024-03-09T06:01:15.289Z,68.08
2024-03-09T06:02:15.375Z,66.15
2024-03-09T06:03:15.394Z,67.74
2024-03-09T06:04:15.442Z,65.83
2024-03-09T06:05:15.535Z,65.73
2024-03-09T06:06:15.509Z,65.45
2024-03-09T06:07:15.532Z,61.65
2024-03-09T06:08:15.696Z,59.37
2024-03-09T06:09:15.621Z,64.06
2024-03-09T06:10:15.620Z,61.75
2024-03-09T06:11:15.730Z,60.96
2024-03-09T06:12:15.880Z,62.22
2024-03-09T06:13:15.803Z,61.44
2024-03-09T06:14:15.913Z,62.23
2024-03-09T06:15:15.966Z,62.87
2024-03-09T06:16:15.932Z,60.84
2024-03-09T06:17:15.994Z,62.58
2024-03-09T06:18:15.996Z,62.96
2024-03-09T06:19:16.055Z,61.68
2024-03-09T06:20:16.072Z,62.88
2024-03-09T06:21:16.122Z,61.28
2024-03-09T06:22:16.173Z,61.87
2024-03-09T06:23:16.319Z,58.43
2024-03-09T06:24:16.252Z,63.17
2024-03-09T06:25:16.270Z,64.08
2024-03-09T06:26:16.384Z,62.13
2024-03-09T06:27:16.375Z,59.61
2024-03-09T06:28:16.428Z,58.77
2024-03-09T06:29:16.471Z,61.27
2024-03-09T06:30:16.433Z,60.71
2024-03-09T06:31:16.493Z,60.86
2024-03-09T06:32:16.554Z,58.76
2024-03-09T06:33:16.606Z,59.10
2024-03-09T06:34:16.616Z,58.21
2024-03-09T06:35:16.719Z,56.20
2024-03-09T06:36:16.678Z,58.81
2024-03-09T06:37:16.776Z,58.91
2024-03-09T06:38:16.872Z,58.30
2024-03-09T06:39:16.852Z,56.45
2024-03-09T06:40:16.836Z,58.60
2024-03-09T06:41:16.998Z,58.07
2024-03-09T06:42:16.931Z,55.55
2024-03-09T06:43:16.963Z,58.15
2024-03-09T06:44:17.023Z,58.12
2024-03-09T06:45:16.965Z,56.63
2024-03-09T06:46:17.018Z,54.53
2024-03-09T06:47:17.102Z,57.79
2024-03-09T06:48:17.205Z,57.54
2024-03-09T06:49:17.132Z,58.08
2024-03-09T06:50:17.212Z,57.78
2024-03-09T06:51:17.199Z,55.20
2024-03-09T06:52:17.216Z,56.57
2024-03-09T06:53:17.410Z,56.02
2024-03-09T06:54:17.304Z,52.74
2024-03-09T06:55:17.334Z,56.40
2024-03-09T06:56:17.350Z,56.05
2024-03-09T06:57:17.364Z,55.25
2024-03-09T06:58:17.385Z,55.94
2024-03-09T06:59:17.470Z,56.61
2024-03-09T07:00:17.458Z,55.51
2024-03-09T07:01:17.535Z,53.78
2024-03-09T07:02:17.587Z,52.53
2024-03-09T07:03:17.531Z,52.50
2024-03-09T07:04:17.589Z,53.68
2024-03-09T07:05:17.739Z,53.64
2024-03-09T07:06:17.764Z,55.04
2024-03-09T07:07:17.768Z,57.90
2024-03-09T07:08:18.205Z,55.18
2024-03-09T07:09:17.760Z,51.29
2024-03-09T07:10:17.819Z,50.75
2024-03-09T07:11:17.843Z,54.65
2024-03-09T07:12:17.805Z,52.48
2024-03-09T07:13:17.838Z,56.97
2024-03-09T07:14:17.978Z,56.41
2024-03-09T07:15:18.290Z,56.23
2024-03-09T07:16:18.023Z,56.67
2024-03-09T07:17:18.168Z,56.83
2024-03-09T07:18:18.094Z,57.28
2024-03-09T07:19:18.098Z,56.91
2024-03-09T07:20:18.197Z,57.56
2024-03-09T07:21:18.241Z,55.28
2024-03-09T07:22:18.387Z,56.15
2024-03-09T07:23:18.652Z,56.59
2024-03-09T07:24:18.646Z,53.91
2024-03-09T07:25:18.749Z,53.11
2024-03-09T07:26:18.802Z,53.13
2024-03-09T07:27:18.953Z,55.52
2024-03-09T07:28:19.111Z,53.76
2024-03-09T07:29:19.353Z,55.65
2024-03-09T07:30:19.403Z,56.35
2024-03-09T07:31:19.560Z,55.30
2024-03-09T07:32:19.752Z,55.24
2024-03-09T07:33:19.943Z,56.47
2024-03-09T07:34:20.081Z,54.08
2024-03-09T07:35:20.756Z,53.71
2024-03-09T07:36:20.262Z,54.85
2024-03-09T07:37:23.958Z,54.51
2024-03-09T07:38:20.296Z,54.58
2024-03-09T07:39:20.296Z,54.66
2024-03-09T07:40:20.299Z,54.83
2024-03-09T07:41:20.333Z,55.02
2024-03-09T07:42:20.307Z,56.44
2024-03-09T07:43:20.306Z,57.69
2024-03-09T07:44:20.412Z,59.39
2024-03-09T07:45:20.332Z,54.63
2024-03-09T07:46:20.326Z,56.02
2024-03-09T07:47:20.338Z,57.49
2024-03-09T07:48:20.373Z,57.01
2024-03-09T07:49:20.457Z,57.98
2024-03-09T07:50:20.544Z,56.01
2024-03-09T07:51:20.545Z,57.27
2024-03-09T07:52:20.612Z,55.53
2024-03-09T07:53:20.670Z,57.10
2024-03-09T07:54:20.735Z,54.29
2024-03-09T07:55:20.856Z,52.93
2024-03-09T07:56:20.871Z,57.67
2024-03-09T07:57:20.856Z,57.02
2024-03-09T07:58:26.227Z,56.64
2024-03-09T07:59:21.949Z,56.74
2024-03-09T08:00:20.969Z,57.30
2024-03-09T08:01:20.920Z,58.23
2024-03-09T08:02:21.036Z,58.96
2024-03-09T08:03:20.979Z,59.30
2024-03-09T08:04:20.932Z,60.29
2024-03-09T08:05:21.011Z,59.90
2024-03-09T08:06:20.923Z,59.86
2024-03-09T08:07:20.921Z,58.53
2024-03-09T08:08:21.084Z,57.57
2024-03-09T08:09:20.928Z,60.48
2024-03-09T08:10:20.925Z,58.83
2024-03-09T08:11:20.970Z,60.76
2024-03-09T08:12:20.980Z,62.57
2024-03-09T08:13:21.333Z,61.70
2024-03-09T08:14:21.083Z,62.61
2024-03-09T08:15:21.069Z,64.27
2024-03-09T08:16:21.156Z,62.46
2024-03-09T08:17:21.172Z,63.39
2024-03-09T08:18:21.240Z,62.03
2024-03-09T08:19:21.201Z,60.35
2024-03-09T08:20:21.281Z,62.46
2024-03-09T08:21:21.296Z,63.15
2024-03-09T08:22:21.339Z,62.27
2024-03-09T08:23:21.497Z,63.69
2024-03-09T08:24:21.359Z,63.07
2024-03-09T08:25:21.431Z,62.51
2024-03-09T08:26:21.549Z,63.74
2024-03-09T08:27:21.432Z,60.99
2024-03-09T08:28:21.536Z,64.13
2024-03-09T08:29:21.531Z,59.40
2024-03-09T08:30:21.462Z,62.56
2024-03-09T08:31:21.497Z,63.38
2024-03-09T08:32:21.574Z,62.20
2024-03-09T08:33:21.583Z,62.32
2024-03-09T08:34:21.518Z,63.18
2024-03-09T08:35:21.642Z,62.33
2024-03-09T08:36:21.641Z,62.08
2024-03-09T08:37:21.607Z,63.82
2024-03-09T08:38:21.656Z,62.25
2024-03-09T08:39:21.624Z,61.56
2024-03-09T08:40:21.744Z,62.06
2024-03-09T08:41:21.688Z,61.35
2024-03-09T08:42:21.698Z,59.50
2024-03-09T08:43:21.742Z,65.47
2024-03-09T08:44:21.684Z,64.89
2024-03-09T08:45:21.885Z,62.86
2024-03-09T08:46:21.763Z,62.50
2024-03-09T08:47:21.823Z,64.07
2024-03-09T08:48:21.701Z,63.22
2024-03-09T08:49:21.725Z,63.02
2024-03-09T08:50:21.766Z,62.60
2024-03-09T08:51:21.736Z,63.26
2024-03-09T08:52:21.926Z,64.51
2024-03-09T08:53:22.187Z,60.29
2024-03-09T08:54:21.820Z,62.66
2024-03-09T08:55:21.879Z,62.33
2024-03-09T08:56:21.905Z,64.48
2024-03-09T08:57:21.958Z,63.80
2024-03-09T08:58:22.040Z,64.64
2024-03-09T08:59:22.079Z,62.02
2024-03-09T09:00:22.318Z,62.95
2024-03-09T09:01:22.293Z,57.21
2024-03-09T09:02:22.329Z,58.63
2024-03-09T09:03:22.289Z,63.12
2024-03-09T09:04:22.347Z,62.52
2024-03-09T09:05:22.530Z,58.13
2024-03-09T09:06:22.517Z,55.24
2024-03-09T09:07:22.557Z,58.95
2024-03-09T09:08:22.679Z,61.49
2024-03-09T09:09:22.695Z,59.26
2024-03-09T09:10:22.902Z,59.77
2024-03-09T09:11:22.875Z,56.64
2024-03-09T09:12:22.918Z,57.80
2024-03-09T09:13:23.012Z,55.81
2024-03-09T09:14:23.020Z,60.37
2024-03-09T09:15:23.082Z,61.17
2024-03-09T09:16:23.280Z,58.38
2024-03-09T09:17:23.263Z,57.68
2024-03-09T09:18:23.254Z,59.52
2024-03-09T09:19:23.315Z,57.59
2024-03-09T09:20:23.801Z,57.82
2024-03-09T09:21:23.457Z,58.88
2024-03-09T09:22:23.548Z,57.92
2024-03-09T09:23:23.763Z,59.33
2024-03-09T09:24:23.654Z,58.06
2024-03-09T09:25:25.647Z,58.49
2024-03-09T09:26:23.807Z,59.25
2024-03-09T09:27:23.738Z,62.27
2024-03-09T09:28:23.704Z,60.18
2024-03-09T09:29:23.706Z,57.56
2024-03-09T09:30:23.732Z,58.17
2024-03-09T09:31:23.720Z,59.85
2024-03-09T09:32:23.853Z,61.01
2024-03-09T09:33:23.728Z,60.15
2024-03-09T09:34:23.733Z,54.86
2024-03-09T09:35:24.217Z,57.80
2024-03-09T09:36:23.702Z,61.72
2024-03-09T09:37:23.748Z,60.46
2024-03-09T09:38:23.847Z,61.74
2024-03-09T09:39:23.789Z,61.18
2024-03-09T09:40:23.718Z,57.06
2024-03-09T09:41:23.716Z,54.43
2024-03-09T09:42:23.725Z,60.10
2024-03-09T09:43:23.736Z,60.26
2024-03-09T09:44:23.802Z,62.66
2024-03-09T09:45:24.110Z,58.38
2024-03-09T09:46:23.738Z,57.39
2024-03-09T09:47:23.751Z,60.55
2024-03-09T09:48:23.777Z,59.63
2024-03-09T09:49:23.743Z,63.13
2024-03-09T09:50:23.862Z,61.12
2024-03-09T09:51:23.784Z,59.56
2024-03-09T09:52:23.759Z,63.51
2024-03-09T09:53:23.825Z,63.73
2024-03-09T09:54:23.767Z,62.67
2024-03-09T09:55:23.775Z,61.44
2024-03-09T09:56:23.765Z,61.28
2024-03-09T09:57:23.778Z,64.20
2024-03-09T09:58:23.837Z,62.42
2024-03-09T09:59:23.936Z,60.25
2024-03-09T10:00:23.942Z,60.68
2024-03-09T10:01:24.054Z,62.93
2024-03-09T10:02:24.816Z,60.33
2024-03-09T10:03:24.138Z,61.93
2024-03-09T10:04:24.134Z,63.60
2024-03-09T10:05:24.249Z,64.56
2024-03-09T10:06:24.338Z,63.09
2024-03-09T10:07:24.292Z,60.20
2024-03-09T10:08:24.430Z,65.02
2024-03-09T10:09:24.403Z,63.49
2024-03-09T10:10:24.420Z,64.30
2024-03-09T10:11:24.595Z,64.85
2024-03-09T10:12:24.853Z,60.31
2024-03-09T10:13:24.618Z,61.49
2024-03-09T10:14:24.640Z,62.19
2024-03-09T10:15:24.762Z,62.71
2024-03-09T10:16:24.672Z,63.99
2024-03-09T10:17:24.948Z,62.19
2024-03-09T10:18:24.802Z,61.32
2024-03-09T10:19:24.795Z,63.00
2024-03-09T10:20:24.894Z,61.54
2024-03-09T10:21:24.926Z,61.94
2024-03-09T10:22:24.996Z,64.38
2024-03-09T10:23:25.032Z,64.64
2024-03-09T10:24:25.048Z,62.49
2024-03-09T10:25:25.040Z,63.85
2024-03-09T10:26:25.144Z,63.60
2024-03-09T10:27:25.160Z,61.67
2024-03-09T10:28:25.171Z,65.70
2024-03-09T10:29:25.274Z,65.38
2024-03-09T10:30:25.246Z,65.00
2024-03-09T10:31:25.287Z,64.11
2024-03-09T10:32:25.325Z,60.97
2024-03-09T10:33:25.454Z,67.52
2024-03-09T10:34:25.412Z,62.81
2024-03-09T10:35:25.664Z,63.55
2024-03-09T10:36:25.502Z,63.93
2024-03-09T10:37:25.505Z,62.96
2024-03-09T10:38:25.626Z,62.55
2024-03-09T10:39:25.647Z,65.50
2024-03-09T10:40:25.660Z,64.42
2024-03-09T10:41:25.697Z,65.60
2024-03-09T10:42:25.686Z,61.93
2024-03-09T10:43:25.752Z,65.59
2024-03-09T10:44:25.761Z,64.83
2024-03-09T10:45:26.674Z,64.86
2024-03-09T10:46:25.857Z,65.44
2024-03-09T10:47:25.886Z,64.97
2024-03-09T10:48:25.889Z,66.67
2024-03-09T10:49:25.932Z,65.96
2024-03-09T10:50:26.008Z,66.53
2024-03-09T10:51:26.023Z,66.29
2024-03-09T10:52:26.050Z,69.06
2024-03-09T10:53:26.068Z,65.56
2024-03-09T10:54:26.106Z,65.93
2024-03-09T10:55:26.150Z,64.44
2024-03-09T10:56:26.265Z,65.69
2024-03-09T10:57:26.232Z,65.95
2024-03-09T10:58:26.295Z,64.06
2024-03-09T10:59:26.383Z,65.10
2024-03-09T11:00:26.357Z,63.91
2024-03-09T11:01:26.381Z,61.44
2024-03-09T11:02:26.447Z,63.33
2024-03-09T11:03:26.388Z,64.83
2024-03-09T11:04:26.412Z,62.34
2024-03-09T11:05:26.453Z,63.05
2024-03-09T11:06:26.713Z,64.07
2024-03-09T11:07:26.530Z,63.78
2024-03-09T11:08:26.535Z,63.01
2024-03-09T11:09:26.555Z,66.15
2024-03-09T11:10:26.614Z,64.95
2024-03-09T11:11:26.662Z,65.30
2024-03-09T11:12:26.654Z,68.13
2024-03-09T11:13:26.632Z,59.11
2024-03-09T11:14:26.713Z,60.18
2024-03-09T11:15:26.727Z,61.74
2024-03-09T11:16:26.777Z,60.22
2024-03-09T11:17:26.913Z,59.44
2024-03-09T11:18:26.858Z,62.85
2024-03-09T11:19:26.852Z,58.69
2024-03-09T11:20:26.949Z,59.40
2024-03-09T11:21:26.936Z,61.02
2024-03-09T11:22:26.957Z,61.48
2024-03-09T11:23:27.014Z,59.57
2024-03-09T11:24:26.977Z,60.81
2024-03-09T11:25:27.026Z,61.26
2024-03-09T11:26:27.102Z,62.41
2024-03-09T11:27:27.070Z,62.97
2024-03-09T11:28:27.123Z,62.34
2024-03-09T11:29:27.165Z,61.39
2024-03-09T11:30:27.128Z,61.39
2024-03-09T11:31:27.190Z,62.03
2024-03-09T11:32:27.205Z,62.87
2024-03-09T11:33:27.151Z,63.22
2024-03-09T11:34:27.209Z,60.89
2024-03-09T11:35:27.286Z,60.99
2024-03-09T11:36:27.260Z,62.55
2024-03-09T11:37:27.270Z,63.17
2024-03-09T11:38:27.279Z,63.02
2024-03-09T11:39:27.298Z,64.09
2024-03-09T11:40:27.304Z,62.49
2024-03-09T11:41:27.372Z,63.39
2024-03-09T11:42:27.353Z,62.69
2024-03-09T11:43:27.469Z,61.98
2024-03-09T11:44:27.428Z,64.37
2024-03-09T11:45:27.441Z,63.74
2024-03-09T11:46:27.434Z,64.07
2024-03-09T11:47:27.547Z,60.95
2024-03-09T11:48:27.454Z,61.71
2024-03-09T11:49:27.455Z,63.05
2024-03-09T11:50:27.543Z,62.36
2024-03-09T11:51:27.472Z,61.14
2024-03-09T11:52:27.567Z,64.57
2024-03-09T11:53:27.565Z,62.96
2024-03-09T11:54:27.606Z,63.29
2024-03-09T11:55:27.544Z,63.72
2024-03-09T11:56:27.610Z,65.84
2024-03-09T11:57:27.594Z,64.93
2024-03-09T11:58:27.626Z,65.15
2024-03-09T11:59:27.782Z,64.62
2024-03-09T12:00:27.638Z,65.36
2024-03-09T12:01:27.664Z,66.77
2024-03-09T12:02:27.815Z,67.25
2024-03-09T12:03:27.696Z,67.56
2024-03-09T12:04:27.735Z,63.74
2024-03-09T12:05:27.733Z,65.80
2024-03-09T12:06:27.724Z,64.57
2024-03-09T12:07:27.731Z,65.38
2024-03-09T12:08:27.726Z,64.65
2024-03-09T12:09:27.789Z,66.67
2024-03-09T12:10:27.771Z,65.36
2024-03-09T12:11:27.891Z,65.18
2024-03-09T12:12:27.792Z,63.40
2024-03-09T12:13:27.860Z,64.45
2024-03-09T12:14:27.903Z,66.89
2024-03-09T12:15:29.684Z,66.11
2024-03-09T12:16:27.856Z,66.06
2024-03-09T12:17:27.954Z,65.85
2024-03-09T12:18:27.900Z,69.09
2024-03-09T12:19:27.918Z,65.59
2024-03-09T12:20:27.906Z,65.95
2024-03-09T12:21:27.944Z,63.44
2024-03-09T12:22:27.952Z,64.13
2024-03-09T12:23:27.946Z,63.65
2024-03-09T12:24:27.971Z,62.98
2024-03-09T12:25:27.978Z,63.20
2024-03-09T12:26:30.442Z,62.55
2024-03-09T12:27:28.003Z,62.63
2024-03-09T12:28:27.959Z,62.59
2024-03-09T12:29:27.969Z,63.06
2024-03-09T12:30:28.017Z,62.51
2024-03-09T12:31:28.032Z,66.04
2024-03-09T12:32:30.722Z,66.26
2024-03-09T12:33:28.059Z,66.30
2024-03-09T12:34:27.974Z,65.02
2024-03-09T12:35:28.058Z,63.04
2024-03-09T12:36:27.981Z,63.78
2024-03-09T12:37:28.012Z,64.22
2024-03-09T12:38:30.110Z,65.09
2024-03-09T12:39:27.965Z,63.87
2024-03-09T12:40:27.993Z,63.12
2024-03-09T12:41:28.011Z,64.49
2024-03-09T12:42:28.017Z,62.65
2024-03-09T12:43:28.038Z,63.08
2024-03-09T12:44:29.460Z,60.81
2024-03-09T12:45:28.015Z,60.92